createdAt,value
2019-04-05T00:01:37.473Z,59.90
2019-04-05T00:04:06.602Z,60.00
2019-04-05T00:06:35.774Z,60.10
2019-04-05T00:09:06.063Z,60.20
2019-04-05T00:11:35.242Z,60.60
2019-04-05T00:14:04.334Z,60.40
2019-04-05T00:16:33.477Z,60.40
2019-04-05T00:19:02.638Z,60.00
2019-04-05T00:21:31.810Z,60.00
2019-04-05T00:24:00.986Z,59.70
2019-04-05T00:26:30.146Z,59.60
2019-04-05T00:28:59.258Z,59.60
2019-04-05T00:31:28.439Z,59.50
2019-04-05T00:33:57.605Z,59.20
2019-04-05T00:36:27.035Z,59.20
2019-04-05T00:38:56.194Z,59.30
2019-04-05T00:41:25.345Z,59.30
2019-04-05T00:43:54.510Z,59.30
2019-04-05T00:46:23.601Z,59.50
2019-04-05T00:48:52.705Z,59.50
2019-04-05T00:51:22.039Z,59.60
2019-04-05T00:53:51.210Z,59.70
2019-04-05T00:56:20.382Z,59.80
2019-04-05T00:58:49.554Z,60.00
2019-04-05T01:01:18.774Z,60.00
2019-04-05T01:03:47.878Z,60.00
2019-04-05T01:06:17.070Z,60.20
2019-04-05T01:08:46.278Z,60.10
2019-04-05T01:11:15.381Z,60.40
2019-04-05T01:13:44.569Z,60.80
2019-04-05T01:16:14.242Z,60.80
2019-04-05T01:18:43.417Z,60.90
2019-04-05T01:21:13.118Z,61.00
2019-04-05T01:23:42.545Z,61.50
2019-04-05T01:26:11.646Z,61.30
2019-04-05T01:28:40.756Z,61.50
2019-04-05T01:31:09.935Z,61.70
2019-04-05T01:33:39.113Z,61.70
2019-04-05T01:36:08.219Z,61.70
2019-04-05T01:38:37.326Z,61.70
2019-04-05T01:41:06.500Z,62.20
2019-04-05T01:43:37.979Z,62.40
2019-04-05T01:46:07.180Z,62.50
2019-04-05T01:48:36.347Z,62.30
2019-04-05T01:51:05.560Z,63.30
2019-04-05T01:53:34.730Z,62.70
2019-04-05T01:56:03.910Z,62.70
2019-04-05T01:58:33.086Z,62.80
2019-04-05T02:01:02.271Z,63.10
2019-04-05T02:03:31.449Z,63.30
2019-04-05T02:06:00.622Z,63.40
2019-04-05T02:08:29.926Z,63.50
2019-04-05T02:10:59.105Z,63.70
2019-04-05T02:13:28.382Z,63.80
2019-04-05T02:16:06.062Z,64.00
2019-04-05T02:18:28.368Z,64.00
2019-04-05T02:20:57.537Z,64.40
2019-04-05T02:23:26.940Z,64.50
2019-04-05T02:25:56.313Z,65.40
2019-04-05T02:28:25.662Z,64.70
2019-04-05T02:30:54.971Z,64.90
2019-04-05T02:33:24.160Z,64.80
2019-04-05T02:35:53.343Z,65.00
2019-04-05T02:38:22.510Z,65.10
2019-04-05T02:40:51.807Z,65.30
2019-04-05T02:43:21.264Z,65.50
2019-04-05T02:45:50.454Z,65.60
2019-04-05T02:48:19.641Z,65.50
2019-04-05T02:50:51.866Z,65.60
2019-04-05T02:53:21.145Z,65.70
2019-04-05T02:55:50.242Z,66.00
2019-04-05T02:58:19.340Z,66.20
2019-04-05T03:00:48.530Z,66.10
2019-04-05T03:03:17.693Z,66.20
2019-04-05T03:05:47.119Z,66.50
2019-04-05T03:08:16.376Z,66.50
2019-04-05T03:10:58.999Z,66.50
2019-04-05T03:13:28.223Z,66.70
2019-04-05T03:15:59.456Z,66.70
2019-04-05T03:18:29.231Z,67.10
2019-04-05T03:21:00.514Z,67.10
2019-04-05T03:23:30.096Z,66.90
2019-04-05T03:25:59.251Z,67.10
2019-04-05T03:28:28.446Z,67.20
2019-04-05T03:30:57.658Z,66.90
2019-04-05T03:33:27.019Z,67.00
2019-04-05T03:35:56.193Z,67.00
2019-04-05T03:38:25.359Z,66.90
2019-04-05T03:40:54.593Z,67.20
2019-04-05T03:43:23.776Z,67.50
2019-04-05T03:45:53.047Z,67.90
2019-04-05T03:48:22.226Z,67.80
2019-04-05T03:50:51.384Z,67.70
2019-04-05T03:53:20.564Z,67.80
2019-04-05T03:55:49.735Z,68.10
2019-04-05T03:58:18.914Z,68.00
2019-04-05T04:00:48.010Z,68.00
2019-04-05T04:03:17.196Z,68.10
2019-04-05T04:05:46.394Z,68.10
2019-04-05T04:08:15.570Z,67.90
2019-04-05T04:10:44.778Z,67.90
2019-04-05T04:13:13.973Z,67.80
2019-04-05T04:15:43.153Z,68.10
2019-04-05T04:18:12.326Z,68.20
2019-04-05T04:20:46.214Z,68.40
2019-04-05T04:23:15.416Z,68.20
2019-04-05T04:25:44.581Z,68.30
2019-04-05T04:28:13.753Z,68.60
2019-04-05T04:30:42.864Z,68.20
2019-04-05T04:33:12.025Z,68.10
2019-04-05T04:35:41.976Z,68.00
2019-04-05T04:38:11.155Z,68.80
2019-04-05T04:40:40.317Z,68.00
2019-04-05T04:43:09.494Z,68.10
2019-04-05T04:45:38.662Z,68.20
2019-04-05T04:48:07.792Z,68.20
2019-04-05T04:50:36.966Z,68.40
2019-04-05T04:53:06.141Z,68.40
2019-04-05T04:55:35.978Z,68.40
2019-04-05T04:58:05.136Z,68.50
2019-04-05T05:00:34.338Z,68.30
2019-04-05T05:03:03.677Z,68.20
2019-04-05T05:05:32.864Z,68.00
2019-04-05T05:08:02.030Z,68.00
2019-04-05T05:10:31.227Z,67.80
2019-04-05T05:13:00.403Z,67.80
2019-04-05T05:15:29.718Z,67.80
2019-04-05T05:17:59.215Z,67.80
2019-04-05T05:20:28.877Z,67.60
2019-04-05T05:22:57.977Z,67.80
2019-04-05T05:25:27.141Z,67.70
2019-04-05T05:27:56.525Z,67.40
2019-04-05T05:30:25.721Z,67.70
2019-04-05T05:32:54.834Z,67.60
2019-04-05T05:35:24.014Z,67.60
2019-04-05T05:37:53.237Z,67.50
2019-04-05T05:40:34.224Z,67.40
2019-04-05T05:42:53.223Z,67.40
2019-04-05T05:45:22.421Z,67.40
2019-04-05T05:47:52.516Z,67.40
2019-04-05T05:50:22.114Z,67.10
2019-04-05T05:52:51.241Z,66.90
2019-04-05T05:55:20.418Z,66.80
2019-04-05T05:57:49.583Z,66.60
2019-04-05T06:00:20.242Z,66.10
2019-04-05T06:02:49.454Z,66.30
2019-04-05T06:05:18.545Z,65.10
2019-04-05T06:07:47.720Z,64.70
2019-04-05T06:10:16.893Z,64.80
2019-04-05T06:12:46.082Z,64.70
2019-04-05T06:15:15.254Z,64.60
2019-04-05T06:17:44.356Z,64.50
2019-04-05T06:20:15.088Z,64.40
2019-04-05T06:22:47.354Z,64.40
2019-04-05T06:25:15.131Z,64.10
2019-04-05T06:27:44.305Z,64.00
2019-04-05T06:30:13.417Z,64.30
2019-04-05T06:32:42.577Z,64.30
2019-04-05T06:35:11.750Z,63.70
2019-04-05T06:37:40.856Z,63.80
2019-04-05T06:40:10.206Z,63.10
2019-04-05T06:42:39.385Z,63.40
2019-04-05T06:45:08.536Z,62.60
2019-04-05T06:47:37.762Z,62.40
2019-04-05T06:50:07.286Z,62.10
2019-04-05T06:52:36.450Z,61.90
2019-04-05T06:55:05.909Z,61.60
2019-04-05T06:57:35.165Z,61.50
2019-04-05T07:00:04.400Z,61.20
2019-04-05T07:02:33.582Z,60.90
2019-04-05T07:05:02.848Z,60.90
2019-04-05T07:07:31.989Z,60.80
2019-04-05T07:10:01.106Z,60.60
2019-04-05T07:12:30.285Z,60.20
2019-04-05T07:14:59.818Z,59.90
2019-04-05T07:17:29.149Z,59.20
2019-04-05T07:19:58.258Z,58.90
2019-04-05T07:22:37.262Z,58.90
2019-04-05T07:24:58.556Z,58.00
2019-04-05T07:27:27.908Z,58.10
2019-04-05T07:29:57.093Z,57.00
2019-04-05T07:32:26.213Z,57.00
2019-04-05T07:34:55.374Z,56.50
2019-04-05T07:37:24.473Z,56.40
2019-04-05T07:39:53.649Z,56.50
2019-04-05T07:42:22.761Z,56.50
2019-04-05T07:44:51.940Z,56.70
2019-04-05T07:47:21.149Z,56.90
2019-04-05T07:49:50.273Z,56.90
2019-04-05T07:52:21.190Z,56.80
2019-04-05T07:54:50.437Z,56.00
2019-04-05T07:57:19.998Z,55.60
2019-04-05T07:59:49.189Z,55.40
2019-04-05T08:02:21.349Z,55.70
2019-04-05T08:04:50.504Z,55.00
2019-04-05T08:07:19.719Z,55.00
2019-04-05T08:09:48.925Z,54.90
2019-04-05T08:12:18.101Z,54.70
2019-04-05T08:14:47.306Z,54.00
2019-04-05T08:17:16.473Z,53.60
2019-04-05T08:19:45.577Z,53.50
2019-04-05T08:22:14.765Z,53.20
2019-04-05T08:24:43.941Z,53.20
2019-04-05T08:27:13.125Z,52.80
2019-04-05T08:29:42.312Z,52.80
2019-04-05T08:32:14.849Z,51.90
2019-04-05T08:34:42.326Z,51.30
2019-04-05T08:37:11.505Z,51.20
2019-04-05T08:39:40.698Z,50.70
2019-04-05T08:42:10.909Z,50.40
2019-04-05T08:44:40.261Z,49.80
2019-04-05T08:47:09.454Z,49.40
2019-04-05T08:49:38.634Z,49.00
2019-04-05T08:52:07.818Z,48.40
2019-04-05T08:54:37.239Z,48.50
2019-04-05T08:57:06.771Z,47.80
2019-04-05T08:59:35.933Z,47.40
2019-04-05T09:02:05.122Z,47.60
2019-04-05T09:04:34.302Z,47.30
2019-04-05T09:07:03.478Z,46.80
2019-04-05T09:09:32.663Z,46.80
2019-04-05T09:12:01.868Z,46.50
2019-04-05T09:14:31.189Z,45.70
2019-04-05T09:17:00.405Z,45.10
2019-04-05T09:19:30.046Z,44.90
2019-04-05T09:21:59.230Z,44.90
2019-04-05T09:24:28.405Z,44.30
2019-04-05T09:26:57.510Z,43.70
2019-04-05T09:29:26.935Z,43.90
2019-04-05T09:31:56.109Z,43.50
2019-04-05T09:34:25.298Z,42.90
2019-04-05T09:36:54.471Z,42.70
2019-04-05T09:39:23.642Z,42.30
2019-04-05T09:41:52.821Z,41.70
2019-04-05T09:44:23.800Z,42.30
2019-04-05T09:46:52.854Z,41.70
2019-04-05T09:49:22.017Z,41.20
2019-04-05T09:51:51.205Z,41.30
2019-04-05T09:54:20.388Z,41.40
2019-04-05T09:56:49.574Z,41.50
2019-04-05T09:59:18.761Z,40.70
2019-04-05T10:01:47.950Z,40.10
2019-04-05T10:04:17.125Z,40.30
2019-04-05T10:06:46.347Z,38.90
2019-04-05T10:09:15.502Z,38.90
2019-04-05T10:11:44.694Z,39.40
2019-04-05T10:14:13.866Z,38.60
2019-04-05T10:16:43.042Z,38.70
2019-04-05T10:19:12.221Z,39.00
2019-04-05T10:21:41.393Z,38.10
2019-04-05T10:24:10.586Z,38.00
2019-04-05T10:26:39.763Z,37.50
2019-04-05T10:29:08.947Z,37.50
2019-04-05T10:31:38.133Z,37.50
2019-04-05T10:34:07.315Z,37.70
2019-04-05T10:36:36.542Z,37.20
2019-04-05T10:39:08.502Z,36.60
2019-04-05T10:41:37.670Z,36.40
2019-04-05T10:44:08.717Z,36.50
2019-04-05T10:46:37.917Z,37.00
2019-04-05T10:49:07.114Z,36.00
2019-04-05T10:51:36.302Z,36.00
2019-04-05T10:54:05.473Z,35.40
2019-04-05T10:56:34.662Z,35.60
2019-04-05T10:59:03.770Z,35.60
2019-04-05T11:01:32.958Z,34.50
2019-04-05T11:04:02.140Z,35.40
2019-04-05T11:06:31.309Z,34.50
2019-04-05T11:09:00.490Z,34.60
2019-04-05T11:11:29.823Z,35.30
2019-04-05T11:13:59.043Z,35.40
2019-04-05T11:16:28.215Z,34.30
2019-04-05T11:18:57.386Z,35.10
2019-04-05T11:21:26.574Z,34.30
2019-04-05T11:23:56.390Z,33.30
2019-04-05T11:26:25.650Z,33.90
2019-04-05T11:28:54.838Z,33.00
2019-04-05T11:31:24.005Z,33.30
2019-04-05T11:33:53.191Z,33.30
2019-04-05T11:36:22.406Z,33.70
2019-04-05T11:38:51.642Z,33.10
2019-04-05T11:41:20.823Z,33.20
2019-04-05T11:43:49.997Z,32.30
2019-04-05T11:46:19.182Z,32.60
2019-04-05T11:48:48.389Z,32.70
2019-04-05T11:51:17.591Z,32.60
2019-04-05T11:53:46.763Z,31.70
2019-04-05T11:56:19.771Z,32.00
2019-04-05T11:58:48.941Z,32.40
2019-04-05T12:01:24.095Z,32.60
2019-04-05T12:03:53.284Z,32.90
2019-04-05T12:06:22.449Z,32.60
2019-04-05T12:08:51.642Z,32.70
2019-04-05T12:11:20.837Z,32.60
2019-04-05T12:13:49.943Z,32.30
2019-04-05T12:16:19.132Z,31.90
2019-04-05T12:18:48.357Z,31.10
2019-04-05T12:21:20.661Z,30.80
2019-04-05T12:23:48.346Z,32.00
2019-04-05T12:26:17.538Z,30.90
2019-04-05T12:28:46.742Z,30.50
2019-04-05T12:31:16.666Z,30.40
2019-04-05T12:33:46.987Z,30.70
2019-04-05T12:36:16.453Z,30.10
2019-04-05T12:38:45.665Z,30.50
2019-04-05T12:41:14.853Z,30.60
2019-04-05T12:43:44.638Z,31.10
2019-04-05T12:46:15.897Z,29.90
2019-04-05T12:48:46.304Z,30.10
2019-04-05T12:51:16.344Z,30.20
2019-04-05T12:53:45.901Z,30.60
2019-04-05T12:56:15.122Z,30.00
2019-04-05T12:58:44.306Z,29.50
2019-04-05T13:01:13.474Z,29.80
2019-04-05T13:03:42.663Z,30.00
2019-04-05T13:06:11.813Z,30.00
2019-04-05T13:08:40.998Z,30.90
2019-04-05T13:11:10.198Z,30.30
2019-04-05T13:13:39.354Z,31.00
2019-04-05T13:16:10.788Z,30.60
2019-04-05T13:18:39.357Z,30.60
2019-04-05T13:21:15.110Z,31.30
2019-04-05T13:23:39.481Z,31.00
2019-04-05T13:26:11.340Z,30.40
2019-04-05T13:28:39.481Z,30.90
2019-04-05T13:31:08.666Z,30.50
2019-04-05T13:33:37.838Z,31.00
2019-04-05T13:36:08.446Z,30.60
2019-04-05T13:38:37.910Z,30.80
2019-04-05T13:41:07.098Z,30.90
2019-04-05T13:43:36.281Z,30.80
2019-04-05T13:46:05.569Z,30.30
2019-04-05T13:48:34.741Z,30.30
2019-04-05T13:51:03.905Z,30.60
2019-04-05T13:53:33.110Z,30.90
2019-04-05T13:56:02.299Z,30.60
2019-04-05T13:58:31.545Z,30.50
2019-04-05T14:01:01.006Z,30.20
2019-04-05T14:03:30.177Z,30.40
2019-04-05T14:05:59.475Z,30.90
2019-04-05T14:08:28.682Z,30.80
2019-04-05T14:10:57.855Z,30.70
2019-04-05T14:13:27.194Z,31.20
2019-04-05T14:15:56.421Z,31.80
2019-04-05T14:18:25.611Z,31.10
2019-04-05T14:20:54.786Z,29.90
2019-04-05T14:23:24.101Z,30.90
2019-04-05T14:25:53.355Z,31.20
2019-04-05T14:28:22.529Z,31.20
2019-04-05T14:30:52.017Z,31.20
2019-04-05T14:33:24.550Z,31.70
2019-04-05T14:35:54.423Z,31.60
2019-04-05T14:38:23.283Z,31.60
2019-04-05T14:40:53.258Z,31.90
2019-04-05T14:43:22.453Z,31.30
2019-04-05T14:45:51.673Z,31.60
2019-04-05T14:48:27.306Z,31.60
2019-04-05T14:50:55.530Z,31.60
2019-04-05T14:53:25.395Z,31.70
2019-04-05T14:55:54.645Z,33.00
2019-04-05T14:58:23.809Z,32.80
2019-04-05T15:00:52.989Z,33.00
2019-04-05T15:03:23.278Z,33.00
2019-04-05T15:05:52.449Z,32.80
2019-04-05T15:08:21.629Z,33.90
2019-04-05T15:10:51.443Z,33.60
2019-04-05T15:13:20.802Z,33.80
2019-04-05T15:15:50.002Z,33.70
2019-04-05T15:18:19.736Z,34.10
2019-04-05T15:20:49.141Z,34.10
2019-04-05T15:23:18.237Z,34.30
2019-04-05T15:25:49.541Z,34.40
2019-04-05T15:28:18.242Z,34.80
2019-04-05T15:30:49.463Z,34.30
2019-04-05T15:33:18.346Z,34.90
2019-04-05T15:35:47.533Z,35.10
2019-04-05T15:38:16.709Z,35.00
2019-04-05T15:40:45.880Z,35.50
2019-04-05T15:43:15.090Z,35.50
2019-04-05T15:45:44.294Z,35.60
2019-04-05T15:48:13.521Z,35.80
2019-04-05T15:50:42.742Z,35.90
2019-04-05T15:53:11.932Z,36.00
2019-04-05T15:55:41.406Z,35.90
2019-04-05T15:58:10.610Z,36.40
2019-04-05T16:00:43.510Z,36.50
2019-04-05T16:03:12.935Z,36.70
2019-04-05T16:05:42.245Z,36.80
2019-04-05T16:08:12.363Z,37.00
2019-04-05T16:10:41.553Z,37.90
2019-04-05T16:13:10.782Z,37.00
2019-04-05T16:15:40.001Z,37.50
2019-04-05T16:18:09.169Z,37.70
2019-04-05T16:20:38.359Z,37.90
2019-04-05T16:23:07.550Z,37.70
2019-04-05T16:25:36.859Z,37.90
2019-04-05T16:28:06.045Z,38.10
2019-04-05T16:30:35.154Z,38.10
2019-04-05T16:33:04.398Z,37.80
2019-04-05T16:35:33.605Z,38.60
2019-04-05T16:38:02.782Z,38.70
2019-04-05T16:40:31.969Z,38.40
2019-04-05T16:43:02.754Z,38.80
2019-04-05T16:45:34.966Z,38.40
2019-04-05T16:48:04.162Z,38.90
2019-04-05T16:50:33.329Z,39.10
2019-04-05T16:53:02.509Z,39.30
2019-04-05T16:55:31.728Z,39.90
2019-04-05T16:58:00.919Z,39.20
2019-04-05T17:00:30.125Z,39.00
2019-04-05T17:02:59.322Z,39.10
2019-04-05T17:05:29.866Z,39.60
2019-04-05T17:07:59.055Z,39.50
2019-04-05T17:10:28.238Z,39.60
2019-04-05T17:12:57.470Z,40.20
2019-04-05T17:15:26.668Z,39.90
2019-04-05T17:17:55.827Z,40.10
2019-04-05T17:20:25.022Z,41.40
2019-04-05T17:22:58.341Z,40.60
2019-04-05T17:25:26.010Z,41.00
2019-04-05T17:27:55.198Z,41.50
2019-04-05T17:30:24.387Z,41.60
2019-04-05T17:32:53.563Z,41.80
2019-04-05T17:35:22.738Z,41.80
2019-04-05T17:37:51.966Z,42.00
2019-04-05T17:40:21.142Z,41.70
2019-04-05T17:42:50.384Z,41.70
2019-04-05T17:45:19.517Z,41.60
2019-04-05T17:47:48.631Z,41.60
2019-04-05T17:50:31.217Z,41.60
2019-04-05T17:53:11.453Z,41.40
2019-04-05T17:55:31.231Z,42.40
2019-04-05T17:58:00.453Z,42.70
2019-04-05T18:00:30.345Z,42.30
2019-04-05T18:02:59.533Z,42.50
2019-04-05T18:05:28.889Z,42.60
2019-04-05T18:07:58.058Z,42.40
2019-04-05T18:10:27.365Z,42.20
2019-04-05T18:12:56.641Z,42.60
2019-04-05T18:15:25.825Z,42.80
2019-04-05T18:17:54.922Z,42.60
2019-04-05T18:20:24.135Z,42.80
2019-04-05T18:22:53.411Z,42.80
2019-04-05T18:25:22.621Z,44.00
2019-04-05T18:27:51.809Z,43.40
2019-04-05T18:30:21.013Z,43.70
2019-04-05T18:32:50.158Z,43.80
2019-04-05T18:35:19.270Z,44.10
2019-04-05T18:37:48.451Z,44.10
2019-04-05T18:40:17.636Z,44.40
2019-04-05T18:42:46.815Z,44.30
2019-04-05T18:45:15.989Z,44.80
2019-04-05T18:47:45.114Z,45.00
2019-04-05T18:50:14.268Z,45.10
2019-04-05T18:52:43.417Z,45.40
2019-04-05T18:55:12.581Z,45.60
2019-04-05T18:57:41.778Z,45.80
2019-04-05T19:00:10.901Z,46.00
2019-04-05T19:02:40.022Z,46.00
2019-04-05T19:05:09.197Z,46.00
2019-04-05T19:07:38.419Z,46.50
2019-04-05T19:10:07.630Z,46.30
2019-04-05T19:12:36.853Z,46.30
2019-04-05T19:15:06.351Z,46.70
2019-04-05T19:17:35.526Z,46.60
2019-04-05T19:20:04.994Z,46.70
2019-04-05T19:22:34.174Z,46.50
2019-04-05T19:25:04.953Z,46.40
2019-04-05T19:27:34.299Z,46.30
2019-04-05T19:50:10.750Z,46.70
2019-04-05T19:52:41.126Z,46.90
2019-04-05T19:55:10.317Z,48.70
2019-04-05T19:57:39.410Z,48.90
2019-04-05T20:00:08.579Z,49.00
2019-04-05T20:02:37.768Z,50.50
2019-04-05T20:05:07.358Z,50.80
2019-04-05T20:07:36.526Z,52.20
2019-04-05T20:10:05.777Z,53.20
2019-04-05T20:12:34.885Z,53.50
2019-04-05T20:15:04.318Z,54.90
2019-04-05T20:17:33.489Z,55.20
2019-04-05T20:20:02.681Z,54.50
2019-04-05T20:22:31.849Z,53.70
2019-04-05T20:25:02.735Z,54.10
2019-04-05T20:27:32.942Z,53.20
2019-04-05T20:30:03.714Z,54.10
2019-04-05T20:32:32.881Z,53.30
2019-04-05T20:35:02.068Z,54.20
2019-04-05T20:37:31.289Z,53.80
2019-04-05T20:40:00.419Z,53.70
2019-04-05T20:42:29.826Z,53.60
2019-04-05T20:44:59.001Z,53.90
2019-04-05T20:47:28.317Z,52.80
2019-04-05T20:49:57.497Z,53.30
2019-04-05T20:52:26.630Z,52.30
2019-04-05T20:54:55.898Z,52.60
2019-04-05T20:57:25.209Z,52.40
2019-04-05T20:59:54.390Z,52.40
2019-04-05T21:02:23.564Z,52.10
2019-04-05T21:04:52.744Z,52.30
2019-04-05T21:07:21.965Z,51.90
2019-04-05T21:09:51.104Z,52.50
2019-04-05T21:12:20.366Z,51.40
2019-04-05T21:14:49.453Z,52.00
2019-04-05T21:17:18.550Z,52.10
2019-04-05T21:19:47.797Z,52.00
2019-04-05T21:22:16.977Z,51.80
2019-04-05T21:24:47.683Z,52.00
2019-04-05T21:27:16.788Z,52.60
2019-04-05T21:29:45.974Z,52.10
2019-04-05T21:32:15.155Z,52.60
2019-04-05T21:34:44.242Z,52.60
2019-04-05T21:37:13.336Z,52.40
2019-04-05T21:39:42.542Z,52.60
2019-04-05T21:42:11.762Z,53.00
2019-04-05T21:44:40.926Z,53.30
2019-04-05T21:47:10.112Z,53.30
2019-04-05T21:49:39.286Z,53.50
2019-04-05T21:52:08.465Z,53.50
2019-04-05T21:54:47.095Z,53.40
2019-04-05T21:57:08.515Z,53.30
2019-04-05T21:59:37.609Z,53.50
2019-04-05T22:02:07.274Z,53.60
2019-04-05T22:04:36.458Z,53.80
2019-04-05T22:07:05.646Z,54.00
2019-04-05T22:09:34.750Z,54.70
2019-04-05T22:12:04.148Z,54.00
2019-04-05T22:14:33.322Z,54.00
2019-04-05T22:17:02.482Z,53.90
2019-04-05T22:19:31.593Z,53.90
2019-04-05T22:22:00.723Z,54.10
2019-04-05T22:24:29.973Z,54.30
2019-04-05T22:26:59.149Z,54.40
2019-04-05T22:29:28.320Z,54.70
2019-04-05T22:31:57.481Z,55.00
2019-04-05T22:34:26.589Z,55.60
2019-04-05T22:36:55.695Z,56.30
2019-04-05T22:39:24.890Z,56.80
2019-04-05T22:41:54.073Z,57.10
2019-04-05T22:44:23.183Z,57.50
2019-04-05T22:46:52.377Z,57.90
2019-04-05T22:49:21.522Z,58.20
2019-04-05T22:51:50.714Z,58.70
2019-04-05T22:54:19.805Z,59.20
2019-04-05T22:56:48.919Z,59.60
2019-04-05T22:59:18.091Z,60.00
2019-04-05T23:01:47.265Z,60.10
2019-04-05T23:04:16.370Z,60.50
2019-04-05T23:06:45.557Z,60.90
2019-04-05T23:09:14.667Z,60.90
2019-04-05T23:11:43.857Z,61.00
2019-04-05T23:14:13.031Z,61.00
2019-04-05T23:16:42.193Z,60.90
2019-04-05T23:19:11.462Z,61.30
2019-04-05T23:21:40.642Z,61.50
2019-04-05T23:24:09.810Z,61.30
2019-04-05T23:26:38.922Z,61.10
2019-04-05T23:29:08.121Z,61.00
2019-04-05T23:31:37.278Z,60.80
2019-04-05T23:34:06.377Z,60.70
2019-04-05T23:36:35.485Z,60.80
2019-04-05T23:39:05.473Z,61.00
2019-04-05T23:41:34.611Z,60.90
2019-04-05T23:44:03.804Z,61.00
2019-04-05T23:46:32.973Z,61.00
2019-04-05T23:49:02.138Z,61.20
2019-04-05T23:51:31.238Z,61.40
2019-04-05T23:54:00.409Z,61.40
2019-04-05T23:56:29.770Z,61.30
2019-04-05T23:58:58.907Z,61.30
